Portada
METAR-TAF:

METAR-TAF

Aeropuertos :

Campbeltown, Escocia

latitud: 55-26-14N, longitud: 005-41-11W, altitud: 13 m

Observación

El informe se hizo hace 4 horas y 40 minutos, a las 16:20 UTC
Viento 1 kt con dirección variable
Temperatura 18°C
Humedad 73%
Presión 1007 hPa
Visibilidad 10 km o más
sin nubes por debajo de 1500 m y sin presencia de cumulonimbus.

METAR: EGEC 151620Z VRB01KT CAVOK 18/13 Q1007

Hora: 22:00 (21:00 UTC)

Pronóstico

El informe se hizo hace 7 horas y 0 minutos, a las 14:00 UTC
Pronóstico válido del 15 a las 15 UTC al 15 a las 18 UTC
Viento 6 kt del sureste
Visibilidad 10 km o más
Escasas nubes a una altura de 2500 ft

TAF: EGEC 151400Z 1515/1518 13006KT 9999 FEW025

Observaciones y pronósticos meteorológicos de más de 4000 aeropuertos (mensajes METAR y TAF).

Los puntos amarillos y rojos representan las estaciones disponibles.

Ponga el ratón en el punto deseado para ver el nombre de la estación.

Haga clic para ver las observaciones y los pronósticos meteorológicos.

Para cambiar el mapa : haga clic en los botones verdes con una cruz de color negro para hacer un zoom, en el botón verde con un guión para alejar o en las flechas verdes para mapas adyacentes.


METAR-TAF: